sensor_id;sensor_type;location;lat;lon;timestamp;P1;durP1;ratioP1;P2;durP2;ratioP2
22097;SDS011;11215;51.938;8.464;2022-12-11T00:00:30;19.90;;;12.97;;
22097;SDS011;11215;51.938;8.464;2022-12-11T00:02:56;21.50;;;13.20;;
22097;SDS011;11215;51.938;8.464;2022-12-11T00:05:21;18.90;;;12.03;;
22097;SDS011;11215;51.938;8.464;2022-12-11T00:07:48;18.43;;;11.93;;
22097;SDS011;11215;51.938;8.464;2022-12-11T00:10:13;19.33;;;11.80;;
22097;SDS011;11215;51.938;8.464;2022-12-11T00:12:39;20.30;;;12.17;;
22097;SDS011;11215;51.938;8.464;2022-12-11T00:15:04;19.23;;;11.83;;
22097;SDS011;11215;51.938;8.464;2022-12-11T00:17:30;19.50;;;12.67;;
22097;SDS011;11215;51.938;8.464;2022-12-11T00:19:56;17.73;;;11.67;;
22097;SDS011;11215;51.938;8.464;2022-12-11T00:22:22;19.50;;;12.23;;
22097;SDS011;11215;51.938;8.464;2022-12-11T00:24:47;19.83;;;12.33;;
22097;SDS011;11215;51.938;8.464;2022-12-11T00:27:13;19.30;;;11.90;;
22097;SDS011;11215;51.938;8.464;2022-12-11T00:29:39;21.70;;;12.43;;
22097;SDS011;11215;51.938;8.464;2022-12-11T00:32:04;21.43;;;13.23;;
22097;SDS011;11215;51.938;8.464;2022-12-11T00:34:30;19.03;;;11.83;;
22097;SDS011;11215;51.938;8.464;2022-12-11T00:36:56;21.13;;;12.53;;
22097;SDS011;11215;51.938;8.464;2022-12-11T00:39:23;20.80;;;12.53;;
22097;SDS011;11215;51.938;8.464;2022-12-11T00:41:48;23.17;;;13.50;;
22097;SDS011;11215;51.938;8.464;2022-12-11T00:44:14;19.67;;;11.37;;
22097;SDS011;11215;51.938;8.464;2022-12-11T00:46:39;20.47;;;12.73;;
22097;SDS011;11215;51.938;8.464;2022-12-11T00:49:05;20.30;;;12.90;;
22097;SDS011;11215;51.938;8.464;2022-12-11T00:51:31;21.90;;;12.87;;
22097;SDS011;11215;51.938;8.464;2022-12-11T00:53:56;22.43;;;12.63;;
22097;SDS011;11215;51.938;8.464;2022-12-11T00:56:22;21.23;;;12.97;;
22097;SDS011;11215;51.938;8.464;2022-12-11T00:58:48;22.77;;;12.77;;
22097;SDS011;11215;51.938;8.464;2022-12-11T01:01:16;21.63;;;13.47;;
22097;SDS011;11215;51.938;8.464;2022-12-11T01:03:44;22.07;;;12.63;;
22097;SDS011;11215;51.938;8.464;2022-12-11T01:06:15;21.23;;;11.57;;
22097;SDS011;11215;51.938;8.464;2022-12-11T01:08:45;21.40;;;12.70;;
22097;SDS011;11215;51.938;8.464;2022-12-11T01:11:12;18.40;;;12.20;;
22097;SDS011;11215;51.938;8.464;2022-12-11T01:13:39;20.80;;;12.43;;
22097;SDS011;11215;51.938;8.464;2022-12-11T01:16:07;23.13;;;13.57;;
22097;SDS011;11215;51.938;8.464;2022-12-11T01:18:39;20.33;;;13.20;;
22097;SDS011;11215;51.938;8.464;2022-12-11T01:21:06;20.37;;;13.47;;
22097;SDS011;11215;51.938;8.464;2022-12-11T01:23:34;21.47;;;12.17;;
22097;SDS011;11215;51.938;8.464;2022-12-11T01:26:04;20.47;;;12.27;;
22097;SDS011;11215;51.938;8.464;2022-12-11T01:28:33;20.03;;;12.33;;
22097;SDS011;11215;51.938;8.464;2022-12-11T01:30:59;24.27;;;12.73;;
22097;SDS011;11215;51.938;8.464;2022-12-11T01:33:25;20.50;;;13.30;;
22097;SDS011;11215;51.938;8.464;2022-12-11T01:35:51;21.23;;;12.77;;
22097;SDS011;11215;51.938;8.464;2022-12-11T01:38:16;20.40;;;11.80;;
22097;SDS011;11215;51.938;8.464;2022-12-11T01:40:46;20.83;;;13.17;;
22097;SDS011;11215;51.938;8.464;2022-12-11T01:43:12;27.80;;;14.33;;
22097;SDS011;11215;51.938;8.464;2022-12-11T01:45:39;20.87;;;13.37;;
22097;SDS011;11215;51.938;8.464;2022-12-11T01:48:09;21.77;;;13.33;;
22097;SDS011;11215;51.938;8.464;2022-12-11T01:50:48;21.80;;;12.47;;
22097;SDS011;11215;51.938;8.464;2022-12-11T01:53:26;27.73;;;15.17;;
22097;SDS011;11215;51.938;8.464;2022-12-11T01:55:56;24.20;;;13.77;;
22097;SDS011;11215;51.938;8.464;2022-12-11T01:58:23;21.67;;;13.30;;
22097;SDS011;11215;51.938;8.464;2022-12-11T02:00:53;27.67;;;14.87;;
22097;SDS011;11215;51.938;8.464;2022-12-11T02:03:19;22.77;;;14.03;;
22097;SDS011;11215;51.938;8.464;2022-12-11T02:05:45;23.03;;;14.03;;
22097;SDS011;11215;51.938;8.464;2022-12-11T02:08:11;21.17;;;13.00;;
22097;SDS011;11215;51.938;8.464;2022-12-11T02:11:00;23.77;;;14.00;;
22097;SDS011;11215;51.938;8.464;2022-12-11T02:13:28;26.93;;;14.83;;
22097;SDS011;11215;51.938;8.464;2022-12-11T02:16:05;28.17;;;14.43;;
22097;SDS011;11215;51.938;8.464;2022-12-11T02:18:41;21.73;;;13.43;;
22097;SDS011;11215;51.938;8.464;2022-12-11T02:21:19;21.70;;;13.47;;
22097;SDS011;11215;51.938;8.464;2022-12-11T02:23:51;23.40;;;13.37;;
22097;SDS011;11215;51.938;8.464;2022-12-11T02:26:31;25.97;;;14.63;;
22097;SDS011;11215;51.938;8.464;2022-12-11T02:29:22;24.83;;;14.80;;
22097;SDS011;11215;51.938;8.464;2022-12-11T02:31:59;25.17;;;15.00;;
22097;SDS011;11215;51.938;8.464;2022-12-11T02:37:30;24.03;;;14.60;;
22097;SDS011;11215;51.938;8.464;2022-12-11T02:39:59;26.53;;;15.83;;
22097;SDS011;11215;51.938;8.464;2022-12-11T02:42:28;26.03;;;14.67;;
22097;SDS011;11215;51.938;8.464;2022-12-11T02:44:56;24.97;;;15.60;;
22097;SDS011;11215;51.938;8.464;2022-12-11T02:47:24;26.10;;;14.20;;
22097;SDS011;11215;51.938;8.464;2022-12-11T02:49:53;26.67;;;15.30;;
22097;SDS011;11215;51.938;8.464;2022-12-11T02:52:22;26.53;;;15.10;;
22097;SDS011;11215;51.938;8.464;2022-12-11T02:54:49;26.40;;;14.53;;
22097;SDS011;11215;51.938;8.464;2022-12-11T02:57:23;27.53;;;15.40;;
22097;SDS011;11215;51.938;8.464;2022-12-11T02:59:57;28.00;;;15.20;;
22097;SDS011;11215;51.938;8.464;2022-12-11T03:02:23;25.03;;;14.77;;
22097;SDS011;11215;51.938;8.464;2022-12-11T03:04:48;27.37;;;14.93;;
22097;SDS011;11215;51.938;8.464;2022-12-11T03:07:15;23.07;;;14.13;;
22097;SDS011;11215;51.938;8.464;2022-12-11T03:09:45;29.43;;;15.63;;
22097;SDS011;11215;51.938;8.464;2022-12-11T03:12:13;27.67;;;15.40;;
22097;SDS011;11215;51.938;8.464;2022-12-11T03:14:44;28.13;;;15.70;;
22097;SDS011;11215;51.938;8.464;2022-12-11T03:17:18;25.23;;;14.10;;
22097;SDS011;11215;51.938;8.464;2022-12-11T03:22:50;27.77;;;15.13;;
22097;SDS011;11215;51.938;8.464;2022-12-11T03:25:22;24.20;;;13.83;;
22097;SDS011;11215;51.938;8.464;2022-12-11T03:27:55;24.07;;;14.47;;
22097;SDS011;11215;51.938;8.464;2022-12-11T03:30:25;26.80;;;14.67;;
22097;SDS011;11215;51.938;8.464;2022-12-11T03:32:57;26.37;;;15.37;;
22097;SDS011;11215;51.938;8.464;2022-12-11T03:35:39;27.77;;;15.50;;
22097;SDS011;11215;51.938;8.464;2022-12-11T03:38:35;27.87;;;15.60;;
22097;SDS011;11215;51.938;8.464;2022-12-11T03:41:02;26.90;;;14.50;;
22097;SDS011;11215;51.938;8.464;2022-12-11T03:43:31;29.67;;;15.73;;
22097;SDS011;11215;51.938;8.464;2022-12-11T03:45:58;29.53;;;15.73;;
22097;SDS011;11215;51.938;8.464;2022-12-11T03:48:27;31.03;;;15.77;;
22097;SDS011;11215;51.938;8.464;2022-12-11T03:50:59;29.00;;;16.47;;
22097;SDS011;11215;51.938;8.464;2022-12-11T03:53:27;27.00;;;15.90;;
22097;SDS011;11215;51.938;8.464;2022-12-11T03:55:54;31.53;;;15.90;;
22097;SDS011;11215;51.938;8.464;2022-12-11T03:58:23;28.70;;;16.07;;
22097;SDS011;11215;51.938;8.464;2022-12-11T04:00:48;33.20;;;16.93;;
22097;SDS011;11215;51.938;8.464;2022-12-11T04:03:14;24.27;;;15.30;;
22097;SDS011;11215;51.938;8.464;2022-12-11T04:05:51;28.87;;;15.43;;
22097;SDS011;11215;51.938;8.464;2022-12-11T04:08:19;26.93;;;14.60;;
22097;SDS011;11215;51.938;8.464;2022-12-11T04:10:45;27.67;;;15.13;;
22097;SDS011;11215;51.938;8.464;2022-12-11T04:13:11;27.13;;;15.97;;
22097;SDS011;11215;51.938;8.464;2022-12-11T04:15:38;27.17;;;15.97;;
22097;SDS011;11215;51.938;8.464;2022-12-11T04:18:05;30.43;;;16.73;;
22097;SDS011;11215;51.938;8.464;2022-12-11T04:20:54;30.73;;;16.63;;
22097;SDS011;11215;51.938;8.464;2022-12-11T04:23:39;32.43;;;17.67;;
22097;SDS011;11215;51.938;8.464;2022-12-11T04:26:23;25.20;;;14.97;;
22097;SDS011;11215;51.938;8.464;2022-12-11T04:28:49;29.07;;;14.77;;
22097;SDS011;11215;51.938;8.464;2022-12-11T04:31:16;26.17;;;15.43;;
22097;SDS011;11215;51.938;8.464;2022-12-11T04:33:45;27.57;;;15.40;;
22097;SDS011;11215;51.938;8.464;2022-12-11T04:36:11;28.00;;;15.67;;
22097;SDS011;11215;51.938;8.464;2022-12-11T04:38:38;33.37;;;17.30;;
22097;SDS011;11215;51.938;8.464;2022-12-11T04:41:06;34.00;;;17.20;;
22097;SDS011;11215;51.938;8.464;2022-12-11T04:43:34;31.87;;;16.57;;
22097;SDS011;11215;51.938;8.464;2022-12-11T04:46:00;36.60;;;18.83;;
22097;SDS011;11215;51.938;8.464;2022-12-11T04:48:27;35.57;;;17.47;;
22097;SDS011;11215;51.938;8.464;2022-12-11T04:50:53;34.73;;;18.47;;
22097;SDS011;11215;51.938;8.464;2022-12-11T04:53:19;33.73;;;16.50;;
22097;SDS011;11215;51.938;8.464;2022-12-11T04:55:44;39.07;;;18.83;;
22097;SDS011;11215;51.938;8.464;2022-12-11T04:58:10;39.00;;;19.60;;
22097;SDS011;11215;51.938;8.464;2022-12-11T05:00:36;34.53;;;18.50;;
22097;SDS011;11215;51.938;8.464;2022-12-11T05:03:01;33.93;;;17.10;;
22097;SDS011;11215;51.938;8.464;2022-12-11T05:05:27;35.93;;;18.97;;
22097;SDS011;11215;51.938;8.464;2022-12-11T05:07:52;34.17;;;18.57;;
22097;SDS011;11215;51.938;8.464;2022-12-11T05:10:18;42.77;;;21.57;;
22097;SDS011;11215;51.938;8.464;2022-12-11T05:12:44;39.93;;;19.67;;
22097;SDS011;11215;51.938;8.464;2022-12-11T05:15:10;33.33;;;17.83;;
22097;SDS011;11215;51.938;8.464;2022-12-11T05:17:35;32.40;;;16.70;;
22097;SDS011;11215;51.938;8.464;2022-12-11T05:20:01;27.37;;;15.47;;
22097;SDS011;11215;51.938;8.464;2022-12-11T05:22:28;33.97;;;17.80;;
22097;SDS011;11215;51.938;8.464;2022-12-11T05:24:55;32.30;;;16.00;;
22097;SDS011;11215;51.938;8.464;2022-12-11T05:27:20;31.90;;;17.50;;
22097;SDS011;11215;51.938;8.464;2022-12-11T05:29:46;27.20;;;16.13;;
22097;SDS011;11215;51.938;8.464;2022-12-11T05:32:11;35.03;;;15.53;;
22097;SDS011;11215;51.938;8.464;2022-12-11T05:34:37;32.93;;;17.23;;
22097;SDS011;11215;51.938;8.464;2022-12-11T05:37:03;32.00;;;16.93;;
22097;SDS011;11215;51.938;8.464;2022-12-11T05:39:28;31.00;;;16.97;;
22097;SDS011;11215;51.938;8.464;2022-12-11T05:41:54;34.07;;;18.63;;
22097;SDS011;11215;51.938;8.464;2022-12-11T05:44:20;32.13;;;17.93;;
22097;SDS011;11215;51.938;8.464;2022-12-11T05:46:46;30.37;;;16.40;;
22097;SDS011;11215;51.938;8.464;2022-12-11T05:49:11;35.77;;;18.33;;
22097;SDS011;11215;51.938;8.464;2022-12-11T05:51:37;35.30;;;17.47;;
22097;SDS011;11215;51.938;8.464;2022-12-11T05:54:03;32.03;;;16.10;;
22097;SDS011;11215;51.938;8.464;2022-12-11T05:56:30;33.83;;;16.60;;
22097;SDS011;11215;51.938;8.464;2022-12-11T05:58:57;34.20;;;17.43;;
22097;SDS011;11215;51.938;8.464;2022-12-11T06:01:24;39.57;;;18.80;;
22097;SDS011;11215;51.938;8.464;2022-12-11T06:03:52;35.97;;;17.80;;
22097;SDS011;11215;51.938;8.464;2022-12-11T06:06:19;34.17;;;17.20;;
22097;SDS011;11215;51.938;8.464;2022-12-11T06:08:45;34.33;;;16.67;;
22097;SDS011;11215;51.938;8.464;2022-12-11T06:11:13;36.77;;;17.07;;
22097;SDS011;11215;51.938;8.464;2022-12-11T06:13:39;36.03;;;15.90;;
22097;SDS011;11215;51.938;8.464;2022-12-11T06:16:05;39.97;;;17.17;;
22097;SDS011;11215;51.938;8.464;2022-12-11T06:18:34;37.60;;;17.70;;
22097;SDS011;11215;51.938;8.464;2022-12-11T06:21:14;34.33;;;16.43;;
22097;SDS011;11215;51.938;8.464;2022-12-11T06:23:44;33.77;;;15.70;;
22097;SDS011;11215;51.938;8.464;2022-12-11T06:26:12;36.47;;;16.97;;
22097;SDS011;11215;51.938;8.464;2022-12-11T06:28:39;37.73;;;16.47;;
22097;SDS011;11215;51.938;8.464;2022-12-11T06:31:05;34.73;;;15.37;;
22097;SDS011;11215;51.938;8.464;2022-12-11T06:33:31;33.03;;;13.70;;
22097;SDS011;11215;51.938;8.464;2022-12-11T06:36:04;30.17;;;14.83;;
22097;SDS011;11215;51.938;8.464;2022-12-11T06:38:33;30.97;;;13.50;;
22097;SDS011;11215;51.938;8.464;2022-12-11T06:40:59;33.03;;;14.53;;
22097;SDS011;11215;51.938;8.464;2022-12-11T06:43:28;32.83;;;14.90;;
22097;SDS011;11215;51.938;8.464;2022-12-11T06:45:54;32.10;;;14.93;;
22097;SDS011;11215;51.938;8.464;2022-12-11T06:48:20;29.90;;;13.53;;
22097;SDS011;11215;51.938;8.464;2022-12-11T06:50:46;34.13;;;14.50;;
22097;SDS011;11215;51.938;8.464;2022-12-11T06:53:14;31.50;;;14.37;;
22097;SDS011;11215;51.938;8.464;2022-12-11T06:55:40;34.50;;;15.37;;
22097;SDS011;11215;51.938;8.464;2022-12-11T06:58:06;34.30;;;15.87;;
22097;SDS011;11215;51.938;8.464;2022-12-11T07:00:36;32.30;;;14.80;;
22097;SDS011;11215;51.938;8.464;2022-12-11T07:03:02;28.60;;;14.73;;
22097;SDS011;11215;51.938;8.464;2022-12-11T07:05:29;33.87;;;14.60;;
22097;SDS011;11215;51.938;8.464;2022-12-11T07:07:56;29.67;;;14.07;;
22097;SDS011;11215;51.938;8.464;2022-12-11T07:10:22;29.03;;;14.37;;
22097;SDS011;11215;51.938;8.464;2022-12-11T07:12:48;31.67;;;14.70;;
22097;SDS011;11215;51.938;8.464;2022-12-11T07:15:13;28.37;;;13.30;;
22097;SDS011;11215;51.938;8.464;2022-12-11T07:17:39;31.20;;;14.13;;
22097;SDS011;11215;51.938;8.464;2022-12-11T07:20:05;28.40;;;13.57;;
22097;SDS011;11215;51.938;8.464;2022-12-11T07:22:31;26.63;;;12.73;;
22097;SDS011;11215;51.938;8.464;2022-12-11T07:24:56;26.23;;;13.30;;
22097;SDS011;11215;51.938;8.464;2022-12-11T07:27:22;23.63;;;11.97;;
22097;SDS011;11215;51.938;8.464;2022-12-11T07:29:49;26.00;;;12.23;;
22097;SDS011;11215;51.938;8.464;2022-12-11T07:32:15;27.03;;;12.13;;
22097;SDS011;11215;51.938;8.464;2022-12-11T07:34:40;26.53;;;12.03;;
22097;SDS011;11215;51.938;8.464;2022-12-11T07:37:06;28.00;;;13.63;;
22097;SDS011;11215;51.938;8.464;2022-12-11T07:39:32;22.03;;;11.90;;
22097;SDS011;11215;51.938;8.464;2022-12-11T07:41:58;28.60;;;12.80;;
22097;SDS011;11215;51.938;8.464;2022-12-11T07:44:23;27.80;;;12.50;;
22097;SDS011;11215;51.938;8.464;2022-12-11T07:46:49;23.30;;;11.33;;
22097;SDS011;11215;51.938;8.464;2022-12-11T07:49:15;25.07;;;11.53;;
22097;SDS011;11215;51.938;8.464;2022-12-11T07:51:40;24.93;;;11.87;;
22097;SDS011;11215;51.938;8.464;2022-12-11T07:54:09;26.17;;;12.87;;
22097;SDS011;11215;51.938;8.464;2022-12-11T07:56:39;24.60;;;12.10;;
22097;SDS011;11215;51.938;8.464;2022-12-11T07:59:05;33.87;;;14.30;;
22097;SDS011;11215;51.938;8.464;2022-12-11T08:01:32;32.43;;;14.87;;
22097;SDS011;11215;51.938;8.464;2022-12-11T08:04:00;26.60;;;13.00;;
22097;SDS011;11215;51.938;8.464;2022-12-11T08:06:28;30.83;;;12.97;;
22097;SDS011;11215;51.938;8.464;2022-12-11T08:08:56;27.80;;;13.00;;
22097;SDS011;11215;51.938;8.464;2022-12-11T08:11:22;26.53;;;13.53;;
22097;SDS011;11215;51.938;8.464;2022-12-11T08:13:48;26.40;;;12.90;;
22097;SDS011;11215;51.938;8.464;2022-12-11T08:16:15;25.93;;;12.20;;
22097;SDS011;11215;51.938;8.464;2022-12-11T08:18:41;26.93;;;14.67;;
22097;SDS011;11215;51.938;8.464;2022-12-11T08:21:09;25.67;;;12.33;;
22097;SDS011;11215;51.938;8.464;2022-12-11T08:23:37;27.30;;;13.77;;
22097;SDS011;11215;51.938;8.464;2022-12-11T08:26:07;24.63;;;12.50;;
22097;SDS011;11215;51.938;8.464;2022-12-11T08:28:34;27.53;;;13.23;;
22097;SDS011;11215;51.938;8.464;2022-12-11T08:31:02;24.23;;;12.20;;
22097;SDS011;11215;51.938;8.464;2022-12-11T08:33:28;26.07;;;13.90;;
22097;SDS011;11215;51.938;8.464;2022-12-11T08:35:54;24.53;;;12.53;;
22097;SDS011;11215;51.938;8.464;2022-12-11T08:38:19;23.40;;;11.63;;
22097;SDS011;11215;51.938;8.464;2022-12-11T08:40:45;30.17;;;12.77;;
22097;SDS011;11215;51.938;8.464;2022-12-11T08:43:11;24.80;;;13.67;;
22097;SDS011;11215;51.938;8.464;2022-12-11T08:45:37;25.43;;;13.07;;
22097;SDS011;11215;51.938;8.464;2022-12-11T08:48:03;30.97;;;14.77;;
22097;SDS011;11215;51.938;8.464;2022-12-11T08:50:29;27.80;;;13.97;;
22097;SDS011;11215;51.938;8.464;2022-12-11T08:52:55;35.97;;;15.30;;
22097;SDS011;11215;51.938;8.464;2022-12-11T08:55:21;32.43;;;14.67;;
22097;SDS011;11215;51.938;8.464;2022-12-11T08:57:47;31.67;;;15.30;;
22097;SDS011;11215;51.938;8.464;2022-12-11T09:00:12;27.17;;;13.73;;
22097;SDS011;11215;51.938;8.464;2022-12-11T09:02:39;25.27;;;13.23;;
22097;SDS011;11215;51.938;8.464;2022-12-11T09:05:05;26.47;;;13.73;;
22097;SDS011;11215;51.938;8.464;2022-12-11T09:07:33;31.37;;;15.10;;
22097;SDS011;11215;51.938;8.464;2022-12-11T09:10:00;27.60;;;13.80;;
22097;SDS011;11215;51.938;8.464;2022-12-11T09:12:26;30.67;;;14.57;;
22097;SDS011;11215;51.938;8.464;2022-12-11T09:14:52;25.53;;;13.87;;
22097;SDS011;11215;51.938;8.464;2022-12-11T09:17:18;28.90;;;14.23;;
22097;SDS011;11215;51.938;8.464;2022-12-11T09:19:44;28.83;;;14.33;;
22097;SDS011;11215;51.938;8.464;2022-12-11T09:22:10;28.43;;;15.07;;
22097;SDS011;11215;51.938;8.464;2022-12-11T09:24:36;30.23;;;14.93;;
22097;SDS011;11215;51.938;8.464;2022-12-11T09:27:03;25.20;;;13.63;;
22097;SDS011;11215;51.938;8.464;2022-12-11T09:29:30;29.43;;;14.87;;
22097;SDS011;11215;51.938;8.464;2022-12-11T09:31:56;29.90;;;14.33;;
22097;SDS011;11215;51.938;8.464;2022-12-11T09:34:22;28.27;;;15.17;;
22097;SDS011;11215;51.938;8.464;2022-12-11T09:36:48;28.03;;;13.60;;
22097;SDS011;11215;51.938;8.464;2022-12-11T09:39:14;28.70;;;14.33;;
22097;SDS011;11215;51.938;8.464;2022-12-11T09:41:48;31.43;;;15.33;;
22097;SDS011;11215;51.938;8.464;2022-12-11T09:46:58;27.67;;;15.07;;
22097;SDS011;11215;51.938;8.464;2022-12-11T09:49:26;27.80;;;14.20;;
22097;SDS011;11215;51.938;8.464;2022-12-11T09:52:00;27.33;;;13.00;;
22097;SDS011;11215;51.938;8.464;2022-12-11T09:54:49;22.07;;;12.10;;
22097;SDS011;11215;51.938;8.464;2022-12-11T10:00:05;22.97;;;11.47;;
22097;SDS011;11215;51.938;8.464;2022-12-11T10:09:14;18.77;;;9.73;;
22097;SDS011;11215;51.938;8.464;2022-12-11T10:16:56;20.63;;;10.27;;
22097;SDS011;11215;51.938;8.464;2022-12-11T10:19:37;20.43;;;11.03;;
22097;SDS011;11215;51.938;8.464;2022-12-11T10:22:07;17.37;;;9.00;;
22097;SDS011;11215;51.938;8.464;2022-12-11T10:24:49;15.80;;;8.80;;
22097;SDS011;11215;51.938;8.464;2022-12-11T10:27:32;27.83;;;15.77;;
22097;SDS011;11215;51.938;8.464;2022-12-11T10:35:41;21.47;;;11.80;;
22097;SDS011;11215;51.938;8.464;2022-12-11T10:38:26;25.40;;;14.63;;
22097;SDS011;11215;51.938;8.464;2022-12-11T10:41:03;18.87;;;10.77;;
22097;SDS011;11215;51.938;8.464;2022-12-11T10:43:39;22.73;;;13.17;;
22097;SDS011;11215;51.938;8.464;2022-12-11T10:46:13;20.87;;;11.50;;
22097;SDS011;11215;51.938;8.464;2022-12-11T10:48:44;23.20;;;11.63;;
22097;SDS011;11215;51.938;8.464;2022-12-11T10:51:11;15.80;;;9.27;;
22097;SDS011;11215;51.938;8.464;2022-12-11T10:53:38;19.57;;;10.43;;
22097;SDS011;11215;51.938;8.464;2022-12-11T10:56:04;20.60;;;11.10;;
22097;SDS011;11215;51.938;8.464;2022-12-11T10:58:31;18.87;;;9.87;;
22097;SDS011;11215;51.938;8.464;2022-12-11T11:03:30;18.33;;;10.27;;
22097;SDS011;11215;51.938;8.464;2022-12-11T11:06:04;18.90;;;10.30;;
22097;SDS011;11215;51.938;8.464;2022-12-11T11:08:45;21.30;;;11.17;;
22097;SDS011;11215;51.938;8.464;2022-12-11T11:14:02;20.17;;;10.47;;
22097;SDS011;11215;51.938;8.464;2022-12-11T11:16:33;19.00;;;9.97;;
22097;SDS011;11215;51.938;8.464;2022-12-11T11:19:01;18.30;;;10.57;;
22097;SDS011;11215;51.938;8.464;2022-12-11T11:21:27;22.37;;;11.03;;
22097;SDS011;11215;51.938;8.464;2022-12-11T11:23:54;21.93;;;11.83;;
22097;SDS011;11215;51.938;8.464;2022-12-11T11:26:20;22.33;;;12.37;;
22097;SDS011;11215;51.938;8.464;2022-12-11T11:29:05;23.27;;;13.50;;
22097;SDS011;11215;51.938;8.464;2022-12-11T11:31:45;23.50;;;11.60;;
22097;SDS011;11215;51.938;8.464;2022-12-11T11:34:15;21.63;;;11.53;;
22097;SDS011;11215;51.938;8.464;2022-12-11T11:36:54;23.27;;;13.00;;
22097;SDS011;11215;51.938;8.464;2022-12-11T11:39:33;22.23;;;12.47;;
22097;SDS011;11215;51.938;8.464;2022-12-11T11:42:14;24.50;;;12.73;;
22097;SDS011;11215;51.938;8.464;2022-12-11T11:47:58;19.93;;;9.97;;
22097;SDS011;11215;51.938;8.464;2022-12-11T11:50:37;22.80;;;12.47;;
22097;SDS011;11215;51.938;8.464;2022-12-11T11:53:30;25.60;;;14.53;;
22097;SDS011;11215;51.938;8.464;2022-12-11T11:56:14;25.00;;;13.83;;
22097;SDS011;11215;51.938;8.464;2022-12-11T12:01:13;24.77;;;13.67;;
22097;SDS011;11215;51.938;8.464;2022-12-11T12:03:41;22.30;;;12.53;;
22097;SDS011;11215;51.938;8.464;2022-12-11T12:06:14;25.70;;;13.80;;
22097;SDS011;11215;51.938;8.464;2022-12-11T12:08:59;25.37;;;13.13;;
22097;SDS011;11215;51.938;8.464;2022-12-11T12:14:32;28.70;;;14.17;;
22097;SDS011;11215;51.938;8.464;2022-12-11T12:17:31;24.27;;;12.90;;
22097;SDS011;11215;51.938;8.464;2022-12-11T12:37:33;27.27;;;14.07;;
22097;SDS011;11215;51.938;8.464;2022-12-11T12:48:34;25.87;;;12.20;;
22097;SDS011;11215;51.938;8.464;2022-12-11T12:51:00;21.03;;;12.43;;
22097;SDS011;11215;51.938;8.464;2022-12-11T12:53:29;24.20;;;12.70;;
22097;SDS011;11215;51.938;8.464;2022-12-11T12:55:58;22.63;;;13.70;;
22097;SDS011;11215;51.938;8.464;2022-12-11T12:58:39;23.60;;;12.97;;
22097;SDS011;11215;51.938;8.464;2022-12-11T13:03:56;24.20;;;12.93;;
22097;SDS011;11215;51.938;8.464;2022-12-11T13:06:36;24.53;;;12.13;;
22097;SDS011;11215;51.938;8.464;2022-12-11T13:09:16;20.40;;;11.53;;
22097;SDS011;11215;51.938;8.464;2022-12-11T13:11:44;26.47;;;13.87;;
22097;SDS011;11215;51.938;8.464;2022-12-11T13:16:40;26.57;;;13.90;;
22097;SDS011;11215;51.938;8.464;2022-12-11T13:21:58;21.87;;;12.43;;
22097;SDS011;11215;51.938;8.464;2022-12-11T13:24:29;22.27;;;12.87;;
22097;SDS011;11215;51.938;8.464;2022-12-11T13:27:06;26.57;;;14.17;;
22097;SDS011;11215;51.938;8.464;2022-12-11T13:34:35;25.50;;;14.00;;
22097;SDS011;11215;51.938;8.464;2022-12-11T13:37:03;26.10;;;13.47;;
22097;SDS011;11215;51.938;8.464;2022-12-11T13:39:32;29.43;;;14.20;;
22097;SDS011;11215;51.938;8.464;2022-12-11T13:42:05;26.23;;;14.60;;
22097;SDS011;11215;51.938;8.464;2022-12-11T13:44:46;25.43;;;13.73;;
22097;SDS011;11215;51.938;8.464;2022-12-11T13:47:13;27.03;;;13.83;;
22097;SDS011;11215;51.938;8.464;2022-12-11T13:49:41;27.10;;;15.20;;
22097;SDS011;11215;51.938;8.464;2022-12-11T13:52:17;28.50;;;14.73;;
22097;SDS011;11215;51.938;8.464;2022-12-11T13:54:48;26.17;;;14.43;;
22097;SDS011;11215;51.938;8.464;2022-12-11T13:57:17;26.40;;;13.90;;
22097;SDS011;11215;51.938;8.464;2022-12-11T14:00:03;28.60;;;14.63;;
22097;SDS011;11215;51.938;8.464;2022-12-11T14:05:03;26.47;;;15.23;;
22097;SDS011;11215;51.938;8.464;2022-12-11T14:07:32;27.87;;;14.13;;
22097;SDS011;11215;51.938;8.464;2022-12-11T14:10:02;27.17;;;15.23;;
22097;SDS011;11215;51.938;8.464;2022-12-11T14:12:31;29.07;;;15.90;;
22097;SDS011;11215;51.938;8.464;2022-12-11T14:14:58;27.53;;;14.27;;
22097;SDS011;11215;51.938;8.464;2022-12-11T14:17:30;24.70;;;14.33;;
22097;SDS011;11215;51.938;8.464;2022-12-11T14:19:58;25.73;;;13.87;;
22097;SDS011;11215;51.938;8.464;2022-12-11T14:22:27;24.40;;;12.80;;
22097;SDS011;11215;51.938;8.464;2022-12-11T14:24:58;26.77;;;15.43;;
22097;SDS011;11215;51.938;8.464;2022-12-11T14:27:27;27.63;;;13.77;;
22097;SDS011;11215;51.938;8.464;2022-12-11T14:29:54;29.23;;;15.13;;
22097;SDS011;11215;51.938;8.464;2022-12-11T14:32:30;26.30;;;14.77;;
22097;SDS011;11215;51.938;8.464;2022-12-11T14:35:01;31.93;;;16.60;;
22097;SDS011;11215;51.938;8.464;2022-12-11T14:37:29;28.20;;;14.93;;
22097;SDS011;11215;51.938;8.464;2022-12-11T14:42:29;25.40;;;14.33;;
22097;SDS011;11215;51.938;8.464;2022-12-11T14:45:07;28.93;;;17.37;;
22097;SDS011;11215;51.938;8.464;2022-12-11T14:47:44;27.67;;;14.77;;
22097;SDS011;11215;51.938;8.464;2022-12-11T14:50:18;24.53;;;13.70;;
22097;SDS011;11215;51.938;8.464;2022-12-11T14:52:52;26.03;;;14.60;;
22097;SDS011;11215;51.938;8.464;2022-12-11T14:55:33;19.47;;;11.47;;
22097;SDS011;11215;51.938;8.464;2022-12-11T14:58:03;19.37;;;11.70;;
22097;SDS011;11215;51.938;8.464;2022-12-11T15:00:56;24.00;;;12.13;;
22097;SDS011;11215;51.938;8.464;2022-12-11T15:03:33;22.90;;;12.67;;
22097;SDS011;11215;51.938;8.464;2022-12-11T15:06:01;21.10;;;11.13;;
22097;SDS011;11215;51.938;8.464;2022-12-11T15:08:44;20.43;;;11.50;;
22097;SDS011;11215;51.938;8.464;2022-12-11T15:11:10;25.23;;;14.23;;
22097;SDS011;11215;51.938;8.464;2022-12-11T15:13:50;24.60;;;13.57;;
22097;SDS011;11215;51.938;8.464;2022-12-11T15:16:16;25.70;;;13.63;;
22097;SDS011;11215;51.938;8.464;2022-12-11T15:18:46;24.93;;;13.70;;
22097;SDS011;11215;51.938;8.464;2022-12-11T15:21:13;21.27;;;11.80;;
22097;SDS011;11215;51.938;8.464;2022-12-11T15:23:56;22.97;;;14.27;;
22097;SDS011;11215;51.938;8.464;2022-12-11T15:26:36;24.03;;;13.00;;
22097;SDS011;11215;51.938;8.464;2022-12-11T15:29:05;23.90;;;13.97;;
22097;SDS011;11215;51.938;8.464;2022-12-11T15:31:57;24.70;;;12.43;;
22097;SDS011;11215;51.938;8.464;2022-12-11T15:34:42;23.13;;;12.53;;
22097;SDS011;11215;51.938;8.464;2022-12-11T15:37:50;21.13;;;12.27;;
22097;SDS011;11215;51.938;8.464;2022-12-11T15:40:04;22.30;;;13.37;;
22097;SDS011;11215;51.938;8.464;2022-12-11T15:42:31;21.13;;;12.67;;
22097;SDS011;11215;51.938;8.464;2022-12-11T15:45:05;21.67;;;13.13;;
22097;SDS011;11215;51.938;8.464;2022-12-11T15:47:32;27.53;;;16.10;;
22097;SDS011;11215;51.938;8.464;2022-12-11T15:49:59;26.77;;;16.27;;
22097;SDS011;11215;51.938;8.464;2022-12-11T15:52:36;26.10;;;15.63;;
22097;SDS011;11215;51.938;8.464;2022-12-11T15:55:02;33.87;;;16.07;;
22097;SDS011;11215;51.938;8.464;2022-12-11T15:57:28;26.67;;;15.17;;
22097;SDS011;11215;51.938;8.464;2022-12-11T15:59:54;29.70;;;15.87;;
22097;SDS011;11215;51.938;8.464;2022-12-11T16:02:20;25.90;;;15.80;;